Terminal Aerodrome Forecast
Issued by NWS Sterling, VA

Current Version | Previous Version | Graphics & Text | Print | Product List | Glossary On
Versions: 1 2 3 4 5 6 7 8 9 10 11 12 13 14 15 16 17 18 19 20 21
000
FTUS41 KLWX 201400 AAA
TAFDCA
TAF AMD
KDCA 201456Z 2015/2112 22009G18KT P6SM SCT250
     FM201700 26011G22KT P6SM BKN250
     FM202200 28009KT P6SM FEW250=

USA.gov is the U.S. government's official web portal to all federal, state and local government web resources and services.